createdAt,value
2022-11-16T00:02:03.425Z,25.02
2022-11-16T00:04:31.255Z,22.98
2022-11-16T00:06:58.897Z,24.88
2022-11-16T00:09:27.180Z,28.20
2022-11-16T00:11:58.378Z,22.83
2022-11-16T00:14:28.447Z,30.67
2022-11-16T00:16:56.620Z,37.45
2022-11-16T00:19:27.729Z,36.60
2022-11-16T00:21:58.835Z,41.92
2022-11-16T00:24:26.465Z,44.83
2022-11-16T00:26:56.035Z,46.85
2022-11-16T00:29:26.468Z,60.60
2022-11-16T00:31:54.772Z,53.95
2022-11-16T00:34:23.216Z,55.50
2022-11-16T00:36:52.603Z,46.60
2022-11-16T00:39:20.453Z,41.53
2022-11-16T00:41:48.651Z,48.50
2022-11-16T00:44:16.867Z,49.60
2022-11-16T00:46:44.563Z,38.92
2022-11-16T00:49:12.148Z,31.67
2022-11-16T00:51:42.174Z,30.25
2022-11-16T00:54:11.153Z,30.27
2022-11-16T00:56:39.159Z,28.35
2022-11-16T00:59:21.300Z,29.88
2022-11-16T01:01:49.077Z,23.77
2022-11-16T01:04:16.929Z,31.23
2022-11-16T01:06:44.694Z,28.48
2022-11-16T01:09:13.719Z,31.95
2022-11-16T01:11:41.297Z,29.38
2022-11-16T01:14:09.809Z,29.77
2022-11-16T01:16:39.079Z,27.50
2022-11-16T01:19:07.566Z,27.35
2022-11-16T01:21:35.947Z,25.17
2022-11-16T01:24:03.905Z,27.17
2022-11-16T01:26:32.970Z,30.55
2022-11-16T01:29:00.952Z,27.48
2022-11-16T01:31:28.819Z,29.60
2022-11-16T01:33:56.368Z,26.20
2022-11-16T01:36:24.205Z,29.27
2022-11-16T01:38:51.736Z,26.55
2022-11-16T01:41:21.610Z,26.90
2022-11-16T01:43:53.695Z,27.33
2022-11-16T01:46:22.019Z,28.15
2022-11-16T01:48:54.224Z,28.77
2022-11-16T01:53:50.934Z,26.20
2022-11-16T01:56:18.851Z,25.40
2022-11-16T01:58:46.856Z,22.70
2022-11-16T02:01:15.985Z,25.80
2022-11-16T02:03:43.804Z,24.98
2022-11-16T02:06:30.659Z,28.73
2022-11-16T02:09:12.314Z,27.98
2022-11-16T02:11:54.718Z,24.05
2022-11-16T02:14:37.965Z,30.10
2022-11-16T02:17:16.608Z,26.25
2022-11-16T02:20:08.156Z,29.52
2022-11-16T02:22:53.499Z,24.30
2022-11-16T02:25:30.772Z,24.25
2022-11-16T02:28:22.524Z,28.85
2022-11-16T02:30:56.080Z,24.17
2022-11-16T02:33:30.642Z,25.35
2022-11-16T02:36:00.873Z,23.88
2022-11-16T02:38:32.431Z,23.25
2022-11-16T02:41:05.215Z,25.17
2022-11-16T02:43:38.625Z,26.95
2022-11-16T02:46:12.480Z,26.38
2022-11-16T02:48:46.808Z,26.25
2022-11-16T02:51:14.990Z,28.58
2022-11-16T02:53:57.894Z,27.52
2022-11-16T02:56:27.065Z,27.95
2022-11-16T02:58:57.782Z,29.47
2022-11-16T03:01:35.261Z,27.27
2022-11-16T03:04:08.384Z,36.17
2022-11-16T03:06:39.399Z,34.88
2022-11-16T03:09:11.613Z,35.92
2022-11-16T03:11:44.625Z,39.72
2022-11-16T03:14:23.042Z,34.75
2022-11-16T03:16:56.721Z,38.55
2022-11-16T03:19:29.541Z,35.13
2022-11-16T03:22:04.035Z,31.30
2022-11-16T03:24:32.481Z,32.40
2022-11-16T03:27:06.416Z,31.85
2022-11-16T03:29:40.547Z,32.83
2022-11-16T03:32:15.773Z,29.77
2022-11-16T03:34:54.689Z,33.08
2022-11-16T03:37:24.501Z,31.00
2022-11-16T03:39:53.355Z,31.83
2022-11-16T03:42:23.613Z,30.83
2022-11-16T03:44:53.708Z,27.27
2022-11-16T03:47:23.161Z,29.75
2022-11-16T03:49:50.827Z,28.85
2022-11-16T03:52:19.093Z,29.15
2022-11-16T03:54:46.706Z,27.48
2022-11-16T03:57:14.295Z,28.05
2022-11-16T03:59:43.906Z,28.23
2022-11-16T04:02:12.034Z,28.48
2022-11-16T04:04:42.981Z,28.38
2022-11-16T04:07:10.844Z,27.45
2022-11-16T04:09:39.914Z,27.15
2022-11-16T04:12:08.525Z,27.80
2022-11-16T04:14:36.239Z,24.70
2022-11-16T04:17:03.777Z,25.60
2022-11-16T04:19:31.414Z,24.25
2022-11-16T04:22:03.338Z,27.95
2022-11-16T04:24:36.793Z,26.30
2022-11-16T04:27:08.164Z,27.55
2022-11-16T04:29:36.374Z,25.73
2022-11-16T04:32:04.782Z,27.45
2022-11-16T04:34:32.980Z,28.75
2022-11-16T04:37:02.149Z,28.83
2022-11-16T04:39:29.759Z,30.08
2022-11-16T04:41:57.540Z,27.23
2022-11-16T04:44:29.867Z,47.35
2022-11-16T04:46:57.824Z,46.00
2022-11-16T04:49:25.348Z,53.50
2022-11-16T04:51:53.052Z,34.38
2022-11-16T04:54:22.414Z,31.15
2022-11-16T04:56:50.547Z,35.55
2022-11-16T04:59:18.122Z,46.33
2022-11-16T05:01:46.325Z,34.78
2022-11-16T05:04:14.033Z,52.10
2022-11-16T05:06:41.707Z,51.15
2022-11-16T05:09:09.353Z,40.53
2022-11-16T05:11:38.347Z,47.85
2022-11-16T05:14:11.304Z,35.10
2022-11-16T05:16:38.937Z,43.65
2022-11-16T05:19:07.023Z,54.08
2022-11-16T05:21:38.389Z,64.35
2022-11-16T05:24:06.448Z,44.13
2022-11-16T05:26:34.038Z,39.35
2022-11-16T05:29:03.508Z,35.90
2022-11-16T05:31:35.117Z,32.42
2022-11-16T05:34:06.928Z,33.67
2022-11-16T05:36:35.740Z,35.05
2022-11-16T05:39:04.522Z,29.90
2022-11-16T05:41:32.550Z,34.85
2022-11-16T05:44:00.125Z,29.23
2022-11-16T05:46:31.605Z,32.13
2022-11-16T05:48:59.767Z,34.35
2022-11-16T05:51:27.314Z,30.63
2022-11-16T05:53:56.781Z,40.60
2022-11-16T05:56:24.574Z,37.67
2022-11-16T05:58:52.236Z,39.90
2022-11-16T06:01:19.947Z,35.80
2022-11-16T06:03:49.125Z,31.58
2022-11-16T06:06:17.314Z,30.83
2022-11-16T06:08:44.860Z,38.90
2022-11-16T06:11:13.626Z,39.47
2022-11-16T06:13:42.235Z,35.10
2022-11-16T06:16:11.449Z,35.35
2022-11-16T06:18:40.122Z,34.05
2022-11-16T06:21:09.859Z,39.13
2022-11-16T06:23:38.012Z,36.75
2022-11-16T06:26:06.803Z,44.05
2022-11-16T06:28:35.372Z,44.25
2022-11-16T06:31:04.886Z,42.92
2022-11-16T06:33:34.056Z,41.30
2022-11-16T06:36:03.536Z,37.50
2022-11-16T06:38:33.045Z,39.42
2022-11-16T06:41:01.046Z,44.05
2022-11-16T06:43:28.855Z,33.40
2022-11-16T06:45:57.845Z,34.58
2022-11-16T06:48:25.994Z,40.50
2022-11-16T06:50:53.738Z,31.60
2022-11-16T06:53:27.488Z,38.10
2022-11-16T06:56:01.282Z,43.67
2022-11-16T06:58:29.535Z,35.17
2022-11-16T07:00:57.156Z,31.40
2022-11-16T07:03:25.037Z,39.60
2022-11-16T07:05:52.630Z,34.88
2022-11-16T07:08:20.174Z,33.72
2022-11-16T07:10:47.863Z,31.58
2022-11-16T07:13:17.229Z,31.27
2022-11-16T07:15:44.742Z,30.02
2022-11-16T07:18:12.743Z,26.95
2022-11-16T07:20:40.847Z,27.27
2022-11-16T07:23:13.811Z,26.13
2022-11-16T07:25:42.026Z,27.40
2022-11-16T07:28:10.001Z,24.90
2022-11-16T07:30:39.172Z,26.02
2022-11-16T07:33:07.032Z,22.90
2022-11-16T07:35:36.469Z,28.50
2022-11-16T07:38:04.259Z,26.05
2022-11-16T07:40:32.164Z,33.17
2022-11-16T07:42:59.911Z,23.77
2022-11-16T07:45:27.539Z,23.17
2022-11-16T07:47:56.917Z,23.77
2022-11-16T07:50:24.843Z,26.85
2022-11-16T07:52:54.614Z,25.20
2022-11-16T07:55:22.822Z,25.48
2022-11-16T07:57:53.470Z,26.55
2022-11-16T08:00:21.672Z,27.70
2022-11-16T08:02:49.676Z,27.67
2022-11-16T08:05:18.692Z,26.08
2022-11-16T08:07:47.482Z,33.28
2022-11-16T08:10:15.576Z,38.03
2022-11-16T08:12:43.141Z,34.70
2022-11-16T08:15:11.313Z,30.42
2022-11-16T08:17:40.578Z,33.13
2022-11-16T08:20:09.941Z,30.95
2022-11-16T08:22:39.356Z,37.03
2022-11-16T08:25:08.082Z,31.42
2022-11-16T08:27:36.098Z,34.55
2022-11-16T08:30:04.967Z,32.35
2022-11-16T08:32:33.462Z,31.88
2022-11-16T08:35:01.100Z,34.85
2022-11-16T08:37:29.039Z,36.38
2022-11-16T08:39:58.354Z,29.63
2022-11-16T08:42:26.052Z,32.10
2022-11-16T08:44:53.594Z,35.08
2022-11-16T08:47:21.272Z,31.65
2022-11-16T08:53:29.626Z,32.95
2022-11-16T08:56:04.062Z,35.08
2022-11-16T08:58:32.163Z,36.80
2022-11-16T09:01:07.952Z,34.17
2022-11-16T09:03:37.159Z,35.25
2022-11-16T09:06:05.885Z,35.40
2022-11-16T09:08:37.034Z,32.05
2022-11-16T09:11:08.478Z,34.60
2022-11-16T09:13:39.572Z,38.85
2022-11-16T09:16:07.808Z,38.03
2022-11-16T09:18:37.065Z,37.53
2022-11-16T09:21:05.218Z,36.83
2022-11-16T09:23:33.053Z,37.35
2022-11-16T09:26:02.296Z,35.13
2022-11-16T09:28:32.743Z,38.40
2022-11-16T09:31:02.033Z,41.25
2022-11-16T09:33:30.803Z,40.42
2022-11-16T09:36:01.597Z,39.03
2022-11-16T09:38:40.602Z,38.78
2022-11-16T09:41:37.458Z,43.33
2022-11-16T09:44:17.404Z,44.35
2022-11-16T09:46:49.273Z,44.00
2022-11-16T09:49:21.222Z,48.78
2022-11-16T09:51:55.896Z,38.28
2022-11-16T09:54:27.604Z,47.95
2022-11-16T09:57:00.586Z,42.10
2022-11-16T09:59:37.030Z,41.53
2022-11-16T10:02:18.981Z,40.97
2022-11-16T10:07:29.191Z,41.78
2022-11-16T10:09:57.284Z,42.17
2022-11-16T10:12:30.664Z,42.33
2022-11-16T10:15:22.171Z,41.67
2022-11-16T10:20:55.162Z,44.53
2022-11-16T10:23:36.928Z,42.75
2022-11-16T10:26:16.197Z,45.60
2022-11-16T10:29:07.532Z,47.03
2022-11-16T10:31:51.608Z,41.58
2022-11-16T10:34:24.751Z,43.97
2022-11-16T10:36:56.004Z,41.20
2022-11-16T10:39:25.756Z,45.45
2022-11-16T10:41:53.449Z,38.90
2022-11-16T10:44:32.106Z,46.67
2022-11-16T10:47:04.467Z,43.92
2022-11-16T10:49:40.222Z,41.03
2022-11-16T10:52:07.849Z,47.67
2022-11-16T10:54:38.900Z,42.42
2022-11-16T10:57:10.706Z,47.78
2022-11-16T10:59:42.092Z,43.83
2022-11-16T11:02:31.343Z,45.78
2022-11-16T11:05:14.284Z,43.38
2022-11-16T11:07:46.900Z,48.80
2022-11-16T11:10:29.717Z,40.25
2022-11-16T11:13:26.123Z,44.97
2022-11-16T11:16:14.425Z,45.75
2022-11-16T11:18:45.350Z,51.15
2022-11-16T11:21:17.625Z,51.10
2022-11-16T11:23:47.822Z,63.80
2022-11-16T11:26:35.906Z,51.15
2022-11-16T11:29:20.697Z,53.35
2022-11-16T11:31:51.264Z,57.20
2022-11-16T11:34:23.791Z,60.78
2022-11-16T11:36:55.219Z,55.05
2022-11-16T11:39:34.803Z,64.68
2022-11-16T11:42:06.197Z,56.22
2022-11-16T11:50:24.902Z,56.35
2022-11-16T11:53:02.799Z,51.63
2022-11-16T11:55:31.298Z,59.47
2022-11-16T11:58:00.340Z,51.67
2022-11-16T12:00:38.132Z,45.53
2022-11-16T12:03:44.780Z,49.78
2022-11-16T12:06:22.260Z,45.83
2022-11-16T12:09:09.938Z,45.58
2022-11-16T12:11:51.217Z,40.53
2022-11-16T12:14:34.103Z,43.38
2022-11-16T12:17:11.261Z,41.95
2022-11-16T12:20:02.077Z,43.05
2022-11-16T12:22:54.074Z,41.55
2022-11-16T12:25:30.859Z,36.60
2022-11-16T12:28:13.950Z,42.00
2022-11-16T12:30:55.099Z,40.65
2022-11-16T12:36:02.093Z,35.85
2022-11-16T12:38:40.891Z,42.53
2022-11-16T12:41:31.777Z,39.00
2022-11-16T12:44:01.108Z,36.50
2022-11-16T12:46:40.891Z,35.72
2022-11-16T12:49:41.289Z,34.40
2022-11-16T12:52:24.043Z,36.38
2022-11-16T12:55:26.710Z,37.08
2022-11-16T12:58:14.467Z,35.78
2022-11-16T13:00:56.988Z,30.30
2022-11-16T13:03:33.543Z,34.63
2022-11-16T13:06:06.195Z,35.75
2022-11-16T13:08:46.605Z,33.35
2022-11-16T13:11:20.986Z,35.03
2022-11-16T13:13:58.009Z,47.80
2022-11-16T13:16:27.486Z,43.47
2022-11-16T13:18:55.895Z,37.03
2022-11-16T13:21:50.445Z,32.88
2022-11-16T13:24:29.673Z,36.83
2022-11-16T13:27:12.472Z,38.28
2022-11-16T13:29:45.927Z,34.10
2022-11-16T13:32:19.960Z,37.25
2022-11-16T13:34:50.040Z,33.15
2022-11-16T13:37:46.538Z,35.75
2022-11-16T13:40:28.662Z,32.42
2022-11-16T13:43:05.948Z,41.08
2022-11-16T13:45:40.143Z,34.15
2022-11-16T13:48:18.034Z,37.72
2022-11-16T13:50:51.979Z,46.33
2022-11-16T13:56:20.907Z,56.65
2022-11-16T13:58:53.400Z,44.50
2022-11-16T14:01:21.468Z,38.15
2022-11-16T14:03:51.288Z,50.15
2022-11-16T14:06:59.540Z,60.28
2022-11-16T14:09:45.064Z,90.28
2022-11-16T14:12:49.749Z,51.08
2022-11-16T14:15:20.175Z,43.88
2022-11-16T14:17:53.283Z,101.35
2022-11-16T14:20:43.020Z,91.30
2022-11-16T14:23:30.868Z,50.08
2022-11-16T14:26:12.216Z,58.33
2022-11-16T14:31:23.818Z,91.20
2022-11-16T14:33:54.323Z,104.35
2022-11-16T14:36:37.731Z,61.72
2022-11-16T14:39:16.984Z,94.22
2022-11-16T14:41:46.564Z,57.83
2022-11-16T14:44:18.935Z,50.97
2022-11-16T14:46:48.596Z,80.18
2022-11-16T14:49:18.036Z,65.65
2022-11-16T14:51:49.866Z,53.58
2022-11-16T14:56:57.123Z,54.17
2022-11-16T14:59:25.559Z,50.58
2022-11-16T15:01:54.705Z,53.00
2022-11-16T15:04:25.598Z,52.33
2022-11-16T15:06:57.534Z,58.78
2022-11-16T15:09:28.983Z,54.58
2022-11-16T15:12:00.904Z,68.85
2022-11-16T15:14:32.924Z,78.75
2022-11-16T15:17:01.978Z,59.67
2022-11-16T15:19:30.466Z,56.75
2022-11-16T15:21:59.863Z,53.33
2022-11-16T15:24:31.704Z,50.78
2022-11-16T15:27:10.273Z,53.63
2022-11-16T15:29:39.051Z,54.42
2022-11-16T15:32:16.089Z,56.35
2022-11-16T15:34:47.865Z,55.10
2022-11-16T15:39:54.065Z,67.57
2022-11-16T15:42:23.843Z,69.82
2022-11-16T15:44:52.710Z,81.03
2022-11-16T15:47:23.152Z,79.65
2022-11-16T15:49:51.272Z,61.95
2022-11-16T15:52:44.754Z,51.35
2022-11-16T15:55:23.506Z,47.15
2022-11-16T15:57:59.993Z,49.10
2022-11-16T16:00:29.020Z,50.30
2022-11-16T16:03:03.921Z,58.30
2022-11-16T16:05:36.415Z,47.55
2022-11-16T16:08:05.594Z,65.10
2022-11-16T16:10:33.328Z,85.38
2022-11-16T16:13:02.021Z,71.38
2022-11-16T16:15:31.662Z,57.60
2022-11-16T16:18:01.973Z,55.65
2022-11-16T16:20:32.243Z,55.17
2022-11-16T16:23:07.877Z,49.13
2022-11-16T16:25:36.855Z,55.67
2022-11-16T16:28:04.988Z,55.20
2022-11-16T16:30:33.512Z,53.97
2022-11-16T16:33:02.668Z,50.40
2022-11-16T16:35:30.352Z,49.92
2022-11-16T16:37:59.542Z,49.08
2022-11-16T16:40:27.876Z,55.28
2022-11-16T16:42:55.759Z,72.30
2022-11-16T16:45:36.231Z,100.15
2022-11-16T16:48:06.064Z,85.60
2022-11-16T16:50:33.934Z,62.38
2022-11-16T16:53:01.857Z,53.05
2022-11-16T16:55:32.838Z,59.13
2022-11-16T16:58:03.978Z,52.50
2022-11-16T17:00:32.193Z,55.55
2022-11-16T17:03:21.037Z,46.80
2022-11-16T17:05:49.679Z,57.10
2022-11-16T17:08:19.143Z,54.53
2022-11-16T17:10:50.351Z,53.65
2022-11-16T17:13:17.897Z,63.13
2022-11-16T17:15:46.867Z,55.92
2022-11-16T17:18:18.488Z,58.90
2022-11-16T17:20:47.783Z,50.25
2022-11-16T17:23:15.486Z,65.47
2022-11-16T17:25:45.345Z,58.47
2022-11-16T17:28:13.380Z,76.97
2022-11-16T17:30:40.982Z,76.90
2022-11-16T17:33:08.662Z,68.65
2022-11-16T17:35:36.524Z,64.25
2022-11-16T17:38:05.797Z,64.07
2022-11-16T17:40:33.507Z,67.97
2022-11-16T17:43:01.391Z,67.78
2022-11-16T17:45:29.075Z,81.25
2022-11-16T17:47:56.912Z,149.80
2022-11-16T17:50:24.691Z,111.65
2022-11-16T17:52:52.434Z,82.85
2022-11-16T17:55:21.576Z,84.70
2022-11-16T17:57:49.104Z,83.40
2022-11-16T18:00:18.078Z,78.78
2022-11-16T18:02:45.824Z,103.57
2022-11-16T18:05:13.812Z,115.57
2022-11-16T18:07:41.856Z,113.10
2022-11-16T18:10:12.675Z,90.97
2022-11-16T18:12:44.310Z,78.07
2022-11-16T18:15:28.015Z,72.25
2022-11-16T18:17:56.901Z,91.50
2022-11-16T18:20:24.665Z,143.48
2022-11-16T18:22:52.378Z,177.63
2022-11-16T18:25:20.101Z,122.97
2022-11-16T18:27:52.583Z,101.18
2022-11-16T18:30:20.451Z,133.63
2022-11-16T18:32:48.222Z,101.40
2022-11-16T18:35:16.169Z,77.80
2022-11-16T18:37:44.097Z,102.07
2022-11-16T18:40:12.389Z,111.97
2022-11-16T18:42:42.071Z,113.53
2022-11-16T18:45:11.191Z,98.00
2022-11-16T18:47:39.087Z,80.13
2022-11-16T18:50:08.916Z,76.90
2022-11-16T18:52:40.717Z,70.82
2022-11-16T18:55:09.343Z,86.00
2022-11-16T18:57:38.337Z,93.10
2022-11-16T19:00:07.197Z,73.25
2022-11-16T19:02:36.240Z,68.57
2022-11-16T19:05:04.492Z,77.60
2022-11-16T19:07:34.520Z,79.78
2022-11-16T19:10:02.215Z,69.03
2022-11-16T19:12:31.028Z,68.20
2022-11-16T19:14:58.640Z,72.68
2022-11-16T19:17:30.348Z,68.25
2022-11-16T19:19:59.606Z,67.45
2022-11-16T19:22:27.337Z,77.35
2022-11-16T19:24:55.153Z,80.95
2022-11-16T19:27:25.100Z,84.18
2022-11-16T19:29:52.673Z,79.07
2022-11-16T19:32:20.968Z,80.35
2022-11-16T19:34:48.545Z,78.18
2022-11-16T19:37:19.933Z,71.00
2022-11-16T19:39:48.229Z,301.75
2022-11-16T19:42:15.806Z,115.78
2022-11-16T19:44:43.837Z,117.20
2022-11-16T19:47:13.729Z,116.85
2022-11-16T19:49:41.472Z,110.93
2022-11-16T19:52:09.049Z,78.65
2022-11-16T19:54:38.539Z,69.70
2022-11-16T19:57:06.472Z,91.68
2022-11-16T19:59:34.205Z,113.30
2022-11-16T20:02:01.841Z,116.18
2022-11-16T20:04:30.829Z,108.60
2022-11-16T20:06:58.715Z,208.05
2022-11-16T20:09:29.605Z,114.30
2022-11-16T20:11:59.139Z,99.30
2022-11-16T20:14:26.927Z,85.85
2022-11-16T20:16:54.684Z,116.25
2022-11-16T20:19:22.460Z,142.60
2022-11-16T20:21:50.338Z,126.72
2022-11-16T20:24:18.348Z,95.40
2022-11-16T20:26:47.918Z,85.13
2022-11-16T20:29:18.740Z,78.03
2022-11-16T20:31:47.051Z,77.57
2022-11-16T20:34:16.882Z,82.10
2022-11-16T20:36:46.460Z,87.03
2022-11-16T20:39:17.036Z,111.80
2022-11-16T20:41:45.201Z,110.75
2022-11-16T20:44:17.426Z,91.45
2022-11-16T20:46:45.405Z,99.15
2022-11-16T20:49:13.464Z,86.63
2022-11-16T20:51:41.226Z,83.13
2022-11-16T20:54:08.988Z,82.85
2022-11-16T20:56:36.556Z,78.45
2022-11-16T20:59:04.757Z,87.22
2022-11-16T21:01:34.181Z,82.43
2022-11-16T21:04:05.093Z,93.97
2022-11-16T21:06:33.498Z,89.10
2022-11-16T21:09:01.797Z,96.80
2022-11-16T21:11:31.681Z,122.28
2022-11-16T21:13:59.902Z,90.25
2022-11-16T21:16:28.033Z,97.50
2022-11-16T21:18:57.023Z,114.75
2022-11-16T21:21:25.525Z,107.72
2022-11-16T21:23:53.549Z,98.38
2022-11-16T21:26:22.773Z,82.28
2022-11-16T21:28:50.642Z,97.18
2022-11-16T21:31:20.015Z,123.85
2022-11-16T21:33:48.222Z,111.95
2022-11-16T21:36:18.990Z,99.82
2022-11-16T21:38:47.213Z,115.55
2022-11-16T21:41:16.242Z,86.97
2022-11-16T21:43:44.406Z,85.75
2022-11-16T21:46:13.550Z,83.38
2022-11-16T21:48:42.810Z,93.37
2022-11-16T21:51:12.381Z,97.88
2022-11-16T21:53:42.217Z,79.00
2022-11-16T21:56:14.508Z,76.32
2022-11-16T21:58:42.817Z,96.85
2022-11-16T22:01:12.079Z,89.85
2022-11-16T22:03:39.969Z,88.18
2022-11-16T22:06:11.845Z,87.78
2022-11-16T22:08:41.560Z,79.60
2022-11-16T22:11:10.370Z,81.38
2022-11-16T22:13:39.064Z,103.72
2022-11-16T22:16:08.700Z,86.28
2022-11-16T22:18:37.893Z,86.15
2022-11-16T22:21:06.171Z,91.45
2022-11-16T22:23:34.631Z,85.57
2022-11-16T22:26:05.859Z,87.50
2022-11-16T22:28:35.120Z,91.82
2022-11-16T22:31:03.760Z,90.10
2022-11-16T22:33:32.260Z,92.30
2022-11-16T22:36:00.228Z,94.53
2022-11-16T22:38:27.972Z,90.80
2022-11-16T22:40:56.791Z,90.22
2022-11-16T22:43:28.382Z,82.90
2022-11-16T22:45:59.636Z,97.95
2022-11-16T22:48:31.723Z,91.32
2022-11-16T22:53:35.512Z,89.68
2022-11-16T22:56:05.671Z,89.20
2022-11-16T22:58:35.238Z,94.80
2022-11-16T23:01:03.325Z,104.28
2022-11-16T23:03:31.401Z,85.53
2022-11-16T23:05:59.622Z,94.10
2022-11-16T23:08:27.797Z,85.15
2022-11-16T23:10:59.699Z,91.18
2022-11-16T23:13:27.463Z,93.63
2022-11-16T23:15:56.661Z,90.63
2022-11-16T23:18:24.268Z,88.30
2022-11-16T23:20:51.837Z,87.65
2022-11-16T23:23:20.241Z,100.38
2022-11-16T23:25:47.864Z,84.80
2022-11-16T23:28:17.935Z,87.55
2022-11-16T23:30:45.806Z,86.68
2022-11-16T23:33:14.940Z,93.40
2022-11-16T23:35:42.678Z,95.03
2022-11-16T23:38:10.412Z,109.78
2022-11-16T23:40:39.709Z,96.85
2022-11-16T23:43:10.667Z,97.68
2022-11-16T23:45:38.491Z,97.03
2022-11-16T23:48:07.627Z,102.10
2022-11-16T23:50:39.488Z,105.97
2022-11-16T23:53:08.313Z,93.18
2022-11-16T23:55:38.099Z,95.32
2022-11-16T23:58:06.585Z,123.22
